Weather at Bezdružice Airstrip

Public forecast

Using degrees Celsius for public forecast. Weather courtesy of forecast.io.

Closest aviation weather report (METAR) to Bezdružice Airstrip

Closest report is Plzeň-Líně Airport, 18.0 nm (33.4 km) SE. Retrieved 2021/07/31 06:00 UTC (24 minutes ago):

LKLN 310600Z AUTO 23008KT 9999 SCT062 19/17 Q1011

Closest aviation forecast (TAF) to Bezdružice Airstrip

Closest forecast is Karlovy Vary International Airport, 18.3 nm (33.9 km) N. Retrieved 2021/07/31 06:03 UTC (21 minutes ago):

TAF LKKV 310500Z 3106/0112 25010KT CAVOK TEMPO 3106/3118 26014G26KT BECMG 0101/0103 9999 BKN020 TEMPO 0104/0112 7000 SHRA BKN010 PROB30 TEMPO 0104/0112 4000 RA BKN005 BECMG 0105/0107 33008KT